ΕΜΥ, Εθνική Μετεωρολογική Υπηρεσία - Δελτία Καιρού, Προγνώσεις

ΑΕΡΟΝΑΥΤΙΛΙΑ

GREEK AIRPORTS CODES

LGTP 141330Z AUTO 23008KT //// // ////// 15/08 Q1012 RE//=

EUROPEAN AIRPORTS CODES

LFPO 141330Z 18003KT 140V240 9999 SCT018 BKN026 07/03 Q0998NOSIG=